Terminal Aerodrome Forecast
Issued by NWS

Current Version | Previous Version | Text Only | Print | Product List | Glossary On
Versions: 1 2 3 4 5 6 7 8 9 10 11 12 13 14 15 16
000
FTUS42 KTAE 261406 AAC
TAFABY
TAF AMD
KABY 261406Z 2614/2712 06003KT 6SM BR SCT004
     FM261500 08005KT P6SM SCT015
     FM262100 10006KT P6SM TS BKN050CB BKN250
     FM270000 11003KT P6SM SCT250=

USA.gov is the U.S. government's official web portal to all federal, state and local government web resources and services.